Time;durP1;ratioP1;P1;durP2;ratioP2;P2;SDS_P1;SDS_P2;PMS_P1;PMS_P2;Temp;Humidity;BMP_temperature;BMP_pressure;BME280_temperature;BME280_humidity;BME280_pressure;Samples;Min_cycle;Max_cycle;Signal;HPM_P1;HPM_P2
2022/02/03 00:02:36;;;;;;;2.90;1.58;;;11.60;75.70;;;;;;2344055;54;20938;-69
2022/02/03 00:05:17;;;;;;;3.28;1.50;;;11.60;75.80;;;;;;2322892;54;21015;-69
2022/02/03 00:08:10;;;;;;;3.47;1.83;;;11.60;75.80;;;;;;2346434;54;21432;-69
2022/02/03 00:24:08;;;;;;;4.15;2.08;;;11.70;75.60;;;;;;2425751;53;20962;-70
2022/02/03 00:26:35;;;;;;;3.10;1.58;;;11.70;75.70;;;;;;2344429;54;20962;-69
2022/02/03 00:29:04;;;;;;;3.47;1.60;;;11.60;75.70;;;;;;2342811;54;21385;-70
2022/02/03 00:31:42;;;;;;;3.45;1.85;;;11.70;75.80;;;;;;2343315;53;21557;-70
2022/02/03 00:34:17;;;;;;;5.22;2.42;;;11.60;75.80;;;;;;2383994;53;20950;-69
2022/02/03 00:49:28;;;;;;;3.10;1.70;;;11.70;75.70;;;;;;2340673;54;21046;-71
2022/02/03 00:51:58;;;;;;;3.05;1.70;;;11.70;75.70;;;;;;2343917;54;20942;-69
2022/02/03 00:54:25;;;;;;;3.20;1.85;;;11.70;75.70;;;;;;2343859;54;20942;-71
2022/02/03 00:56:56;;;;;;;3.28;2.00;;;11.70;75.70;;;;;;2329997;54;21112;-70
2022/02/03 00:59:56;;;;;;;3.37;1.77;;;11.70;75.60;;;;;;2379853;54;20938;-69
2022/02/03 01:02:24;;;;;;;3.83;1.75;;;11.70;75.30;;;;;;2344067;54;21577;-70
2022/02/03 01:04:51;;;;;;;4.37;2.33;;;11.70;75.40;;;;;;2343662;53;21017;-69
2022/02/03 01:07:21;;;;;;;3.80;2.10;;;11.70;75.50;;;;;;2415042;53;21006;-69
2022/02/03 01:10:02;;;;;;;3.30;1.77;;;11.70;75.50;;;;;;2343667;54;20962;-69
2022/02/03 01:12:38;;;;;;;3.58;1.75;;;11.70;75.40;;;;;;2339799;54;20990;-69
2022/02/03 01:15:21;;;;;;;3.53;1.90;;;11.70;75.40;;;;;;2421334;53;21011;-70
2022/02/03 01:18:59;;;;;;;2.60;1.40;;;11.70;75.40;;;;;;2451573;53;21261;-70
2022/02/03 01:21:41;;;;;;;3.00;1.52;;;11.70;75.40;;;;;;2432792;53;21423;-69
2022/02/03 01:34:15;;;;;;;2.42;1.08;;;11.60;75.20;;;;;;2343877;54;20934;-69
2022/02/03 01:37:12;;;;;;;2.50;1.37;;;11.70;75.40;;;;;;2337080;54;21066;-69
2022/02/03 01:45:19;;;;;;;2.70;1.40;;;11.70;75.40;;;;;;2304462;54;20987;-70
2022/02/03 01:47:55;;;;;;;3.15;1.62;;;11.70;75.50;;;;;;2548501;53;20947;-69
2022/02/03 01:53:08;;;;;;;2.53;1.33;;;11.70;75.50;;;;;;2325384;53;20954;-69
2022/02/03 01:55:34;;;;;;;2.85;1.52;;;11.70;75.50;;;;;;2475235;53;20993;-69
2022/02/03 01:58:15;;;;;;;2.40;1.27;;;11.70;75.50;;;;;;2329185;54;20935;-69
2022/02/03 02:00:54;;;;;;;2.35;1.20;;;11.60;75.30;;;;;;2381582;53;21728;-69
2022/02/03 02:03:25;;;;;;;2.25;1.23;;;11.70;75.40;;;;;;2343894;54;20954;-70
2022/02/03 02:09:11;;;;;;;2.67;1.37;;;11.60;75.40;;;;;;2344091;54;20938;-69
2022/02/03 02:12:54;;;;;;;2.15;0.95;;;11.60;75.00;;;;;;2343357;53;21248;-69
2022/02/03 02:15:51;;;;;;;2.25;1.05;;;11.70;75.00;;;;;;2344317;54;20954;-69
2022/02/03 02:41:47;;;;;;;1.83;0.80;;;11.60;75.30;;;;;;2343925;54;20954;-71
2022/02/03 02:44:33;;;;;;;2.20;0.77;;;11.60;75.40;;;;;;2330574;53;21416;-70
2022/02/03 02:46:59;;;;;;;2.22;0.98;;;11.60;75.20;;;;;;2356551;53;21327;-68
2022/02/03 02:49:51;;;;;;;2.15;1.00;;;11.60;75.30;;;;;;2343710;54;20938;-70
2022/02/03 02:52:26;;;;;;;2.03;1.00;;;11.60;75.30;;;;;;2383735;53;21302;-70
2022/02/03 02:55:49;;;;;;;2.00;0.77;;;11.60;75.40;;;;;;2489575;53;21075;-70
2022/02/03 02:58:42;;;;;;;2.08;0.93;;;11.60;75.20;;;;;;2344047;54;20926;-70
2022/02/03 03:01:52;;;;;;;2.30;0.90;;;11.60;75.30;;;;;;2320368;55;20951;-69
2022/02/03 03:31:10;;;;;;;2.55;0.88;;;11.50;75.30;;;;;;2343299;53;21680;-69
2022/02/03 03:33:52;;;;;;;2.20;0.80;;;11.50;75.30;;;;;;2320051;54;21391;-69
2022/02/03 03:36:21;;;;;;;2.30;0.95;;;11.50;75.20;;;;;;2343801;54;21026;-70
2022/02/03 03:38:48;;;;;;;2.60;1.10;;;11.50;75.20;;;;;;2422906;53;20926;-70
2022/02/03 03:41:19;;;;;;;1.87;0.88;;;11.50;75.20;;;;;;2357518;54;21481;-71
2022/02/03 03:44:46;;;;;;;2.40;1.05;;;11.50;75.20;;;;;;2314554;54;20976;-69
2022/02/03 03:47:15;;;;;;;1.77;0.80;;;11.50;74.50;;;;;;2333622;54;20943;-70
2022/02/03 03:49:46;;;;;;;2.83;1.10;;;11.40;74.90;;;;;;2298166;54;2106717;-70
2022/02/03 03:52:18;;;;;;;2.20;1.10;;;11.40;75.00;;;;;;2320058;55;20959;-69
2022/02/03 03:55:02;;;;;;;;;;;11.40;75.00;;;;;;2324421;55;20993;-69
2022/02/03 03:57:58;;;;;;;1.52;0.70;;;11.40;74.30;;;;;;2343810;53;20067;-69
2022/02/03 04:38:21;;;;;;;2.00;1.00;;;11.20;74.70;;;;;;2343430;53;20993;-69
2022/02/03 04:55:40;;;;;;;3.30;1.75;;;11.10;74.80;;;;;;2317124;54;21003;-68
2022/02/03 05:21:13;;;;;;;3.78;1.90;;;11.10;74.80;;;;;;2356602;53;21735;-71
2022/02/03 05:24:35;;;;;;;3.30;1.92;;;11.10;75.00;;;;;;2343173;54;21636;-69
2022/02/03 05:42:31;;;;;;;5.30;2.15;;;11.10;75.10;;;;;;2342354;54;20938;-70
2022/02/03 05:45:52;;;;;;;4.20;2.30;;;11.10;75.40;;;;;;2360830;53;20990;-70
2022/02/03 06:02:06;;;;;;;4.57;2.22;;;11.10;75.50;;;;;;2343539;54;20974;-70
2022/02/03 06:14:05;;;;;;;3.20;1.55;;;11.10;75.40;;;;;;2343330;54;20928;-70
2022/02/03 06:21:50;;;;;;;3.03;1.65;;;11.10;75.50;;;;;;2339734;55;21372;-68
2022/02/03 06:24:30;;;;;;;3.15;1.70;;;11.20;75.50;;;;;;2370328;53;20966;-69
2022/02/03 06:32:02;;;;;;;3.03;1.58;;;11.20;75.60;;;;;;2347686;53;20901;-70
2022/02/03 06:34:28;;;;;;;3.78;1.87;;;11.20;75.40;;;;;;2339048;55;20931;-70
2022/02/03 06:36:55;;;;;;;4.00;1.60;;;11.20;75.50;;;;;;2339192;55;20982;-70
2022/02/03 06:39:22;;;;;;;3.45;1.70;;;11.20;75.40;;;;;;2339315;55;20991;-69
2022/02/03 06:41:53;;;;;;;3.40;1.55;;;11.10;75.40;;;;;;2339288;55;20930;-69
2022/02/03 06:44:26;;;;;;;4.03;1.90;;;11.10;75.40;;;;;;2492036;53;20927;-71
2022/02/03 06:46:54;;;;;;;3.15;1.48;;;11.10;75.40;;;;;;2339357;55;20967;-69
2022/02/03 06:49:42;;;;;;;2.78;1.40;;;11.20;75.50;;;;;;2341695;55;21055;-70
2022/02/03 06:52:24;;;;;;;2.92;1.48;;;11.10;75.50;;;;;;2338656;53;21956;-70
2022/02/03 06:58:53;;;;;;;2.25;1.05;;;11.20;75.40;;;;;;2404737;53;20967;-69
2022/02/03 07:01:26;;;;;;;2.57;1.17;;;11.20;75.30;;;;;;2339065;55;21381;-69
2022/02/03 07:03:57;;;;;;;2.83;1.50;;;11.20;75.40;;;;;;2364593;53;21028;-70
2022/02/03 07:06:29;;;;;;;2.45;1.12;;;11.20;75.40;;;;;;2329194;53;20953;-70
2022/02/03 07:08:58;;;;;;;3.40;1.48;;;11.20;75.30;;;;;;2382535;53;20983;-69
2022/02/03 07:11:28;;;;;;;2.72;1.30;;;11.10;75.20;;;;;;2339261;54;20976;-71
2022/02/03 07:13:54;;;;;;;3.10;1.50;;;11.20;75.30;;;;;;2338497;54;21476;-69
2022/02/03 07:16:20;;;;;;;2.80;1.40;;;11.10;75.30;;;;;;2338801;55;20962;-70
2022/02/03 07:18:47;;;;;;;2.97;1.55;;;11.20;75.40;;;;;;2338404;55;20912;-69
2022/02/03 07:21:13;;;;;;;2.70;1.40;;;11.20;75.40;;;;;;2340851;53;20921;-69
2022/02/03 07:23:40;;;;;;;2.37;1.15;;;11.20;75.50;;;;;;2343855;53;20900;-70
2022/02/03 07:26:06;;;;;;;3.37;1.62;;;11.20;75.50;;;;;;2337903;55;20951;-69
2022/02/03 07:28:34;;;;;;;3.83;1.55;;;11.20;75.60;;;;;;2338396;55;20924;-70
2022/02/03 07:31:07;;;;;;;2.97;1.37;;;11.20;75.60;;;;;;2343862;53;21028;-68
2022/02/03 07:33:34;;;;;;;2.85;1.50;;;11.20;75.50;;;;;;2339069;55;20947;-71
2022/02/03 07:36:00;;;;;;;3.33;1.62;;;11.20;75.60;;;;;;2339063;55;20959;-70
2022/02/03 07:38:26;;;;;;;3.00;1.33;;;11.20;75.60;;;;;;2338662;55;21720;-70
2022/02/03 07:40:53;;;;;;;2.40;1.10;;;11.20;75.70;;;;;;2337994;53;21024;-69
2022/02/03 07:43:22;;;;;;;2.87;1.65;;;11.30;75.90;;;;;;2479954;53;20959;-70
2022/02/03 07:45:49;;;;;;;3.10;1.40;;;11.30;75.90;;;;;;2347980;53;21515;-72
2022/02/03 07:48:18;;;;;;;2.40;1.15;;;11.30;75.90;;;;;;2338646;53;21833;-70
2022/02/03 07:50:44;;;;;;;3.00;1.12;;;11.30;75.70;;;;;;2364243;53;20915;-70
2022/02/03 07:53:15;;;;;;;2.33;1.10;;;11.40;75.90;;;;;;2341102;53;21782;-68
2022/02/03 07:55:41;;;;;;;2.35;1.00;;;11.40;75.90;;;;;;2336869;53;20962;-69
2022/02/03 07:58:07;;;;;;;2.75;1.20;;;11.40;75.90;;;;;;2347140;53;20962;-71
2022/02/03 08:00:33;;;;;;;2.83;1.40;;;11.40;75.80;;;;;;2403077;53;21531;-70
2022/02/03 08:03:12;;;;;;;4.18;1.67;;;11.50;75.90;;;;;;2345079;53;20935;-69
2022/02/03 08:05:40;;;;;;;6.43;2.25;;;11.50;75.90;;;;;;2400304;53;22337;-69
2022/02/03 08:08:21;;;;;;;4.93;2.20;;;11.50;76.00;;;;;;2413496;53;20963;-69
2022/02/03 08:10:54;;;;;;;4.15;1.52;;;11.50;76.00;;;;;;2412835;53;20943;-72
2022/02/03 08:13:28;;;;;;;4.37;1.80;;;11.60;76.10;;;;;;2337757;55;21751;-69
2022/02/03 08:16:04;;;;;;;2.95;1.55;;;11.60;75.90;;;;;;2368607;53;20921;-70
2022/02/03 08:18:37;;;;;;;3.08;1.85;;;11.60;75.90;;;;;;2339011;54;21704;-70
2022/02/03 08:21:07;;;;;;;3.92;2.55;;;11.70;76.80;;;;;;2341888;54;20939;-69
2022/02/03 08:24:13;;;;;;;3.67;1.90;;;11.70;76.10;;;;;;2360897;53;20923;-70
2022/02/03 08:26:54;;;;;;;2.12;1.25;;;11.70;76.10;;;;;;2418686;53;20943;-70
2022/02/03 08:30:09;;;;;;;3.08;1.23;;;11.70;76.20;;;;;;2341128;55;21663;-70
2022/02/03 08:32:42;;;;;;;2.60;1.10;;;11.80;76.30;;;;;;2337989;54;20915;-70
2022/02/03 08:35:21;;;;;;;2.47;0.95;;;11.90;76.30;;;;;;2396141;53;20931;-70
2022/02/03 08:38:01;;;;;;;2.05;0.90;;;11.90;76.20;;;;;;2339153;54;21332;-69
2022/02/03 08:40:43;;;;;;;2.12;0.90;;;11.90;76.00;;;;;;2339339;55;20951;-70
2022/02/03 08:43:13;;;;;;;2.57;1.10;;;11.90;75.80;;;;;;2347987;53;21090;-70
2022/02/03 08:45:39;;;;;;;2.10;0.90;;;12.00;75.70;;;;;;2339254;54;20979;-69
2022/02/03 08:48:05;;;;;;;2.35;0.90;;;12.00;75.80;;;;;;2347907;54;21026;-69
2022/02/03 08:50:36;;;;;;;1.65;0.73;;;12.00;75.90;;;;;;2414972;53;21541;-70
2022/02/03 08:53:17;;;;;;;2.28;0.80;;;12.00;76.00;;;;;;2346484;53;21538;-69
2022/02/03 09:40:34;;;;;;;4.07;2.22;;;13.00;78.00;;;;;;2324824;54;20920;-71
2022/02/03 09:51:51;;;;;;;3.25;1.20;;;13.70;81.30;;;;;;2341382;53;20968;-71
2022/02/03 09:54:49;;;;;;;2.00;1.00;;;13.90;80.80;;;;;;2326047;54;21411;-71
2022/02/03 09:57:41;;;;;;;1.70;0.75;;;14.00;80.30;;;;;;2446246;53;21026;-71
2022/02/03 10:00:44;;;;;;;1.92;0.80;;;14.20;80.10;;;;;;2343719;53;21005;-71
2022/02/03 10:03:17;;;;;;;1.52;0.60;;;14.40;77.80;;;;;;2344090;54;21009;-70
2022/02/03 10:06:10;;;;;;;1.85;0.77;;;14.50;77.40;;;;;;2319901;54;21284;-71
2022/02/03 10:08:36;;;;;;;2.00;0.80;;;14.50;76.10;;;;;;2351411;53;21509;-72
2022/02/03 10:11:44;;;;;;;1.73;0.90;;;14.40;75.60;;;;;;2442857;53;21503;-71
2022/02/03 10:14:10;;;;;;;1.73;0.80;;;14.40;74.60;;;;;;2342450;54;21049;-71
2022/02/03 10:16:38;;;;;;;1.80;0.73;;;14.40;75.50;;;;;;2328376;54;20919;-71
2022/02/03 10:19:11;;;;;;;1.85;0.70;;;14.30;75.70;;;;;;2355095;54;20959;-71
2022/02/03 10:21:38;;;;;;;2.28;0.73;;;14.30;75.80;;;;;;2317274;55;21393;-71
2022/02/03 10:24:06;;;;;;;1.45;0.60;;;14.30;75.70;;;;;;2441188;54;21010;-71
2022/02/03 10:26:35;;;;;;;1.65;0.77;;;14.30;75.00;;;;;;2344026;54;21006;-71
2022/02/03 10:29:01;;;;;;;1.15;0.47;;;14.30;74.70;;;;;;2343124;54;20942;-70
2022/02/03 10:31:34;;;;;;;1.30;0.60;;;14.20;74.60;;;;;;2555178;53;21276;-71
2022/02/03 10:34:13;;;;;;;1.12;0.45;;;14.20;74.40;;;;;;2343216;54;20950;-70
2022/02/03 10:37:09;;;;;;;1.70;0.67;;;14.20;74.70;;;;;;2344418;53;21069;-71
2022/02/03 10:40:06;;;;;;;1.05;0.50;;;14.20;74.80;;;;;;2343952;54;20962;-70
2022/02/03 10:45:46;;;;;;;1.77;0.73;;;14.20;74.70;;;;;;2342905;54;21566;-70
2022/02/03 10:48:34;;;;;;;1.75;0.80;;;14.10;74.60;;;;;;2333690;54;21869;-71
2022/02/03 10:51:31;;;;;;;3.90;1.73;;;14.20;74.70;;;;;;2335249;54;20958;-70
2022/02/03 10:54:14;;;;;;;2.85;1.15;;;14.10;74.40;;;;;;2475944;54;21570;-71
2022/02/03 11:00:55;;;;;;;;;;;14.10;73.60;;;;;;2451770;53;21731;-70
2022/02/03 11:07:54;;;;;;;3.50;1.37;;;14.10;74.70;;;;;;2319409;54;21549;-71
2022/02/03 11:10:39;;;;;;;2.92;1.30;;;14.10;74.90;;;;;;2344199;54;20946;-71
2022/02/03 11:13:05;;;;;;;4.18;1.90;;;14.10;74.80;;;;;;2559452;52;21064;-70
2022/02/03 11:15:33;;;;;;;4.53;1.77;;;14.10;74.70;;;;;;2333585;54;20954;-70
2022/02/03 11:18:02;;;;;;;5.70;2.72;;;14.10;74.60;;;;;;2324733;54;21882;-70
2022/02/03 11:20:34;;;;;;;5.85;2.78;;;14.10;74.80;;;;;;2316533;54;20994;-71
2022/02/03 11:23:18;;;;;;;3.97;1.83;;;14.10;74.80;;;;;;2344089;54;21511;-70
2022/02/03 11:26:03;;;;;;;4.50;2.33;;;14.10;75.20;;;;;;2343688;54;20942;-71
2022/02/03 11:39:56;;;;;;;2.33;1.17;;;14.30;75.60;;;;;;2401569;53;20946;-70
2022/02/03 12:03:12;;;;;;;2.12;0.98;;;14.50;74.30;;;;;;2308568;53;20973;-70
2022/02/03 12:06:50;;;;;;;6.00;1.40;;;14.50;75.00;;;;;;2328864;53;20990;-70
2022/02/03 12:11:20;;;;;;;3.25;1.73;;;14.50;75.00;;;;;;2338853;54;21372;-70
2022/02/03 12:17:32;;;;;;;2.72;1.37;;;14.50;74.30;;;;;;2338423;55;20927;-70
2022/02/03 12:20:08;;;;;;;3.28;1.42;;;14.50;74.60;;;;;;2339279;54;20978;-71
2022/02/03 12:22:57;;;;;;;3.33;1.52;;;14.50;74.50;;;;;;2342752;53;20954;-70
2022/02/03 12:25:54;;;;;;;2.97;1.50;;;14.50;74.60;;;;;;2329910;54;21136;-71
2022/02/03 12:29:13;;;;;;;3.72;1.80;;;14.50;73.70;;;;;;2348542;53;21008;-71
2022/02/03 12:32:02;;;;;;;4.05;1.73;;;14.50;74.80;;;;;;2314421;54;20985;-70
2022/02/03 12:41:19;;;;;;;3.35;1.98;;;14.60;75.00;;;;;;2315544;55;20968;-70
2022/02/03 12:43:55;;;;;;;4.55;2.62;;;14.60;74.90;;;;;;2316599;55;21015;-69
2022/02/03 12:46:22;;;;;;;5.60;3.33;;;14.60;74.60;;;;;;2316273;54;20971;-71
2022/02/03 12:48:57;;;;;;;4.37;2.83;;;14.60;74.90;;;;;;2315374;54;21303;-71
2022/02/03 12:51:23;;;;;;;4.55;2.80;;;14.70;74.70;;;;;;2316163;54;21476;-70
2022/02/03 12:53:49;;;;;;;4.55;2.40;;;14.70;75.40;;;;;;2317680;55;21452;-71
2022/02/03 12:56:23;;;;;;;3.92;1.98;;;14.80;75.60;;;;;;2318453;54;21519;-70
2022/02/03 12:58:59;;;;;;;4.10;2.00;;;14.80;75.20;;;;;;2318528;54;21024;-71
2022/02/03 13:01:34;;;;;;;4.00;2.20;;;14.90;74.90;;;;;;2316456;54;20983;-70
2022/02/03 13:04:07;;;;;;;5.97;2.33;;;14.90;75.00;;;;;;2318555;54;21004;-70
2022/02/03 13:06:33;;;;;;;4.60;2.50;;;14.90;74.50;;;;;;2315888;55;21911;-70
2022/02/03 13:09:03;;;;;;;3.65;2.28;;;14.90;74.10;;;;;;2312707;55;20951;-71
2022/02/03 13:11:53;;;;;;;13.98;7.78;;;14.90;73.60;;;;;;2398311;53;21679;-70
2022/02/03 13:14:32;;;;;;;10.55;5.78;;;14.90;73.40;;;;;;2318841;54;21289;-69
2022/02/03 13:17:07;;;;;;;6.55;3.60;;;14.90;73.40;;;;;;2317187;54;20939;-71
2022/02/03 13:19:58;;;;;;;7.80;4.55;;;14.80;73.20;;;;;;2317062;54;21824;-71
2022/02/03 13:22:43;;;;;;;10.38;6.05;;;14.80;73.30;;;;;;2316268;54;20995;-71
2022/02/03 13:25:39;;;;;;;8.05;4.10;;;14.70;73.40;;;;;;2331093;55;20975;-70
2022/02/03 13:33:38;;;;;;;4.90;2.50;;;14.70;73.50;;;;;;2338759;55;20951;-70
2022/02/03 13:36:11;;;;;;;3.22;1.77;;;14.70;73.60;;;;;;2338955;54;20982;-70
2022/02/03 13:38:54;;;;;;;5.25;2.62;;;14.70;73.50;;;;;;2338930;55;20951;-70
2022/02/03 13:41:25;;;;;;;10.18;5.78;;;14.60;73.60;;;;;;2341697;54;21417;-71
2022/02/03 13:43:51;;;;;;;7.07;3.55;;;14.60;73.50;;;;;;2338588;53;21090;-70
2022/02/03 13:46:25;;;;;;;4.72;2.45;;;14.60;73.50;;;;;;2342112;53;21036;-70
2022/02/03 13:48:51;;;;;;;10.77;5.03;;;14.60;73.00;;;;;;2484480;53;21941;-70
2022/02/03 13:51:18;;;;;;;11.45;4.80;;;14.60;73.50;;;;;;2338755;55;21507;-70
2022/02/03 13:53:56;;;;;;;25.50;10.65;;;14.50;73.50;;;;;;2374520;53;20994;-70
2022/02/03 14:18:16;;;;;;;4.87;2.85;;;14.60;73.50;;;;;;2315617;54;21034;-71
2022/02/03 14:20:47;;;;;;;5.47;2.40;;;14.60;73.80;;;;;;2316407;54;20970;-69
2022/02/03 14:27:24;;;;;;;4.18;1.90;;;14.50;73.60;;;;;;2316941;53;20994;-70
2022/02/03 14:29:58;;;;;;;3.67;1.90;;;14.50;73.80;;;;;;2309144;55;21369;-71
2022/02/03 14:32:36;;;;;;;3.37;1.80;;;14.40;73.50;;;;;;2339288;55;20935;-70
2022/02/03 14:35:05;;;;;;;3.83;1.42;;;14.40;73.50;;;;;;2464589;53;20939;-71
2022/02/03 14:37:49;;;;;;;3.60;2.10;;;14.40;73.60;;;;;;2339204;55;21464;-71
2022/02/03 14:40:33;;;;;;;5.47;1.90;;;14.40;73.30;;;;;;2337825;54;20914;-71
2022/02/03 14:43:08;;;;;;;3.55;1.60;;;14.30;73.50;;;;;;2339390;55;21038;-71
2022/02/03 14:45:35;;;;;;;4.55;2.05;;;14.30;73.50;;;;;;2416627;53;20926;-71
2022/02/03 14:48:02;;;;;;;3.75;2.00;;;14.30;73.50;;;;;;2338933;55;20911;-71
2022/02/03 14:50:30;;;;;;;4.75;2.00;;;14.30;73.50;;;;;;2341852;53;20937;-70
2022/02/03 14:53:03;;;;;;;3.47;1.70;;;14.20;73.60;;;;;;2342546;53;21012;-71
2022/02/03 14:58:22;;;;;;;4.37;2.40;;;14.20;73.70;;;;;;2339025;53;20927;-72
2022/02/03 15:00:49;;;;;;;6.07;2.92;;;14.20;73.70;;;;;;2341105;54;20925;-71
2022/02/03 15:03:17;;;;;;;6.97;3.30;;;14.10;73.50;;;;;;2341772;53;21457;-70
2022/02/03 15:05:43;;;;;;;5.62;3.30;;;14.10;74.10;;;;;;2343846;53;21035;-71
2022/02/03 15:08:21;;;;;;;7.10;3.60;;;14.10;73.40;;;;;;2338809;53;21042;-70
2022/02/03 15:11:05;;;;;;;6.35;3.72;;;14.10;73.20;;;;;;2339127;55;20941;-71
2022/02/03 15:13:48;;;;;;;7.07;4.18;;;14.10;73.50;;;;;;2339089;55;20923;-71
2022/02/03 15:16:15;;;;;;;8.00;3.70;;;14.00;73.40;;;;;;2339092;54;20895;-71
2022/02/03 15:18:55;;;;;;;7.22;3.17;;;14.00;73.40;;;;;;2439704;53;20915;-70
2022/02/03 15:21:25;;;;;;;4.25;2.42;;;14.00;73.40;;;;;;2338700;55;20922;-70
2022/02/03 15:23:51;;;;;;;4.30;2.10;;;14.00;73.10;;;;;;2339069;55;20998;-70
2022/02/03 15:26:18;;;;;;;5.25;2.10;;;13.90;73.10;;;;;;2341346;53;21004;-70
2022/02/03 15:28:44;;;;;;;3.97;2.03;;;13.90;73.00;;;;;;2554013;53;21503;-69
2022/02/03 15:31:11;;;;;;;2.92;1.48;;;13.90;73.00;;;;;;2346770;53;21423;-70
2022/02/03 15:33:38;;;;;;;3.40;1.58;;;13.80;73.00;;;;;;2324143;53;20967;-70
2022/02/03 15:36:09;;;;;;;2.83;1.50;;;13.80;72.90;;;;;;2341452;54;21014;-70
2022/02/03 15:38:44;;;;;;;2.47;1.17;;;13.80;72.90;;;;;;2334536;53;20961;-69
2022/02/03 15:41:19;;;;;;;3.30;1.60;;;13.70;72.90;;;;;;2331341;53;21028;-70
2022/02/03 15:43:47;;;;;;;2.78;1.35;;;13.70;72.90;;;;;;2338193;53;21460;-70
2022/02/03 15:46:16;;;;;;;3.28;1.70;;;13.70;72.80;;;;;;2345147;53;20970;-69
2022/02/03 15:48:55;;;;;;;6.40;3.65;;;13.60;72.70;;;;;;2332608;53;20991;-70
2022/02/03 16:01:34;;;;;;;5.78;2.75;;;13.40;72.70;;;;;;2337477;54;20970;-70
2022/02/03 16:18:30;;;;;;;4.62;2.47;;;13.00;72.60;;;;;;2331365;53;20911;-69
2022/02/03 16:21:05;;;;;;;5.85;2.40;;;13.00;72.60;;;;;;2343119;54;21379;-70
2022/02/03 17:00:59;;;;;;;7.93;2.95;;;12.30;72.60;;;;;;2337988;54;20930;-71
2022/02/03 17:03:26;;;;;;;8.90;4.07;;;12.20;72.60;;;;;;2338714;55;20963;-70
2022/02/03 17:05:53;;;;;;;7.87;3.95;;;12.10;72.60;;;;;;2498469;53;21367;-70
2022/02/03 17:08:21;;;;;;;8.00;3.87;;;12.10;72.80;;;;;;2338282;54;21035;-71
2022/02/03 17:10:47;;;;;;;8.18;4.00;;;12.00;73.50;;;;;;2478226;52;20969;-69
2022/02/03 17:13:14;;;;;;;7.30;3.37;;;12.00;72.90;;;;;;2339080;53;20979;-70
2022/02/03 17:15:42;;;;;;;7.72;4.40;;;11.90;72.90;;;;;;2392549;53;21714;-70
2022/02/03 17:18:08;;;;;;;8.05;4.00;;;11.90;73.00;;;;;;2444806;53;21457;-70
2022/02/03 17:20:38;;;;;;;6.53;3.87;;;11.90;72.90;;;;;;2338840;55;20915;-69
2022/02/03 17:23:07;;;;;;;5.37;3.40;;;11.90;72.90;;;;;;2339669;55;21019;-70
2022/02/03 17:27:03;;;;;;;6.55;3.50;;;11.80;72.80;;;;;;2339531;55;20915;-70
2022/02/03 17:30:02;;;;;;;6.57;4.20;;;11.80;72.80;;;;;;2585284;53;20972;-70
2022/02/03 18:05:12;;;;;;;6.85;3.87;;;11.20;72.60;;;;;;2343291;54;21375;-68
2022/02/03 18:30:57;;;;;;;7.87;3.75;;;10.80;72.50;;;;;;2315089;54;20998;-70
2022/02/03 18:36:48;;;;;;;7.30;4.20;;;10.80;72.50;;;;;;2316151;54;20970;-70
2022/02/03 18:50:40;;;;;;;7.12;3.55;;;10.60;72.80;;;;;;2316342;53;21006;-69
2022/02/03 18:53:14;;;;;;;6.45;3.47;;;10.50;72.90;;;;;;2334431;53;21469;-69
2022/02/03 18:56:12;;;;;;;6.65;3.20;;;10.50;73.10;;;;;;2320087;54;20956;-69
2022/02/03 18:58:53;;;;;;;5.40;2.47;;;10.50;73.20;;;;;;2317424;53;21086;-69
2022/02/03 19:01:40;;;;;;;5.45;3.20;;;10.50;73.30;;;;;;2318004;53;20992;-70
2022/02/03 19:23:11;;;;;;;11.82;6.75;;;10.40;72.90;;;;;;2342466;53;20966;-70
2022/02/03 19:56:38;;;;;;;7.10;3.58;;;10.30;72.80;;;;;;2477118;53;20920;-68
2022/02/03 20:34:48;;;;;;;4.00;1.85;;;10.20;72.50;;;;;;2332536;55;20939;-70
2022/02/03 20:37:15;;;;;;;5.22;1.92;;;9.10;73.70;;;;;;2381882;53;20931;-68
2022/02/03 20:39:43;;;;;;;3.72;1.83;;;9.10;73.90;;;;;;2342283;53;21043;-69
2022/02/03 20:42:15;;;;;;;4.62;2.22;;;9.10;74.10;;;;;;2407129;53;20944;-70
2022/02/03 20:44:45;;;;;;;4.70;2.43;;;9.00;74.00;;;;;;2340168;55;20983;-68
2022/02/03 20:47:13;;;;;;;4.93;2.22;;;9.00;74.10;;;;;;2346247;54;21065;-69
2022/02/03 20:49:39;;;;;;;4.57;2.45;;;9.00;74.20;;;;;;2333958;53;21404;-70
2022/02/03 20:52:08;;;;;;;4.28;2.22;;;9.00;74.20;;;;;;2369018;53;21947;-70
2022/02/03 20:54:35;;;;;;;3.90;2.03;;;9.00;74.10;;;;;;2584421;53;20981;-69
2022/02/03 20:57:01;;;;;;;3.53;1.98;;;9.00;74.10;;;;;;2333809;53;20943;-69
2022/02/03 20:59:36;;;;;;;18.33;2.92;;;8.90;73.90;;;;;;2340336;55;20955;-70
2022/02/03 21:02:09;;;;;;;4.35;2.17;;;8.90;73.80;;;;;;2481741;53;21002;-68
2022/02/03 21:04:58;;;;;;;3.53;1.95;;;8.90;73.70;;;;;;2420654;53;20928;-70
2022/02/03 21:07:24;;;;;;;3.50;2.03;;;8.90;73.70;;;;;;2390115;53;21384;-70
2022/02/03 21:09:51;;;;;;;4.62;2.35;;;8.90;73.80;;;;;;2441540;53;21365;-70
2022/02/03 21:12:17;;;;;;;5.53;2.08;;;8.80;73.90;;;;;;2343309;54;21014;-70
2022/02/03 21:14:45;;;;;;;4.43;2.20;;;8.80;74.00;;;;;;2338763;53;20967;-70
2022/02/03 21:17:14;;;;;;;5.55;3.00;;;8.80;74.10;;;;;;2380592;53;20947;-70
2022/02/03 21:19:42;;;;;;;5.18;2.72;;;8.80;74.30;;;;;;2339754;55;20939;-69
2022/02/03 21:22:08;;;;;;;4.60;2.70;;;8.80;74.40;;;;;;2378024;53;20935;-69
2022/02/03 21:24:34;;;;;;;3.40;1.70;;;8.80;74.60;;;;;;2339262;55;21463;-68
2022/02/03 21:27:01;;;;;;;3.12;1.73;;;8.80;74.70;;;;;;2338869;54;20931;-69
2022/02/03 21:29:28;;;;;;;3.30;1.70;;;8.80;74.80;;;;;;2341665;53;20977;-69
2022/02/03 21:31:54;;;;;;;3.50;2.00;;;8.80;75.00;;;;;;2442630;53;21961;-69
2022/02/03 21:34:23;;;;;;;2.40;1.25;;;8.80;75.10;;;;;;2339699;55;21019;-69
2022/02/03 21:36:54;;;;;;;3.17;1.62;;;8.80;75.20;;;;;;2452368;53;20986;-70
2022/02/03 21:39:20;;;;;;;3.47;1.70;;;8.80;75.30;;;;;;2341685;53;21116;-69
2022/02/03 21:41:48;;;;;;;4.28;1.62;;;8.90;75.40;;;;;;2417516;53;20982;-70
2022/02/03 21:44:15;;;;;;;3.55;1.50;;;8.90;75.60;;;;;;2354649;53;20979;-70
2022/02/03 21:46:42;;;;;;;3.35;1.40;;;8.90;75.70;;;;;;2340123;55;20907;-69
2022/02/03 21:49:08;;;;;;;3.83;1.70;;;8.90;75.70;;;;;;2342503;53;20984;-68
2022/02/03 21:51:41;;;;;;;3.05;1.60;;;8.90;75.70;;;;;;2339565;55;21010;-68
2022/02/03 21:54:08;;;;;;;3.28;1.60;;;9.00;75.70;;;;;;2339970;54;21424;-69
2022/02/03 21:56:35;;;;;;;3.40;1.58;;;9.00;75.70;;;;;;2403071;53;21051;-69
2022/02/03 21:59:06;;;;;;;3.90;1.58;;;9.00;75.70;;;;;;2368883;53;20912;-70
2022/02/03 22:01:35;;;;;;;2.60;1.30;;;9.00;75.70;;;;;;2342382;54;20983;-68
2022/02/03 22:04:05;;;;;;;2.67;1.30;;;9.10;75.70;;;;;;2341206;54;21422;-69
2022/02/03 22:06:31;;;;;;;3.33;1.70;;;9.10;75.60;;;;;;2345557;54;21004;-70
2022/02/03 22:09:00;;;;;;;2.90;1.48;;;9.10;75.60;;;;;;2344924;54;20941;-68
2022/02/03 22:11:26;;;;;;;3.08;1.48;;;9.10;75.50;;;;;;2344186;54;21217;-69
2022/02/03 22:14:00;;;;;;;4.03;1.95;;;9.10;75.40;;;;;;2344053;54;21465;-70
2022/02/03 22:16:28;;;;;;;5.78;1.98;;;9.10;75.30;;;;;;2346973;54;20957;-68
2022/02/03 22:18:54;;;;;;;3.25;1.75;;;9.10;75.20;;;;;;2344216;53;21087;-71
2022/02/03 22:21:35;;;;;;;5.25;2.08;;;9.10;75.10;;;;;;2351263;53;20992;-70
2022/02/03 22:27:26;;;;;;;4.72;2.20;;;9.10;74.50;;;;;;2316999;54;21560;-68
2022/02/03 22:43:53;;;;;;;6.47;2.62;;;8.90;73.70;;;;;;2447461;53;20955;-70
2022/02/03 22:46:52;;;;;;;6.72;2.90;;;8.90;73.70;;;;;;2343132;54;21392;-71
2022/02/03 22:49:19;;;;;;;4.60;2.75;;;8.90;73.70;;;;;;2339041;53;20923;-68
2022/02/03 22:51:45;;;;;;;5.65;2.97;;;8.80;73.50;;;;;;2369700;53;20929;-70
2022/02/03 22:54:12;;;;;;;6.60;3.30;;;8.80;73.30;;;;;;2345175;53;20939;-68
2022/02/03 22:56:40;;;;;;;6.00;3.37;;;8.80;73.10;;;;;;2338839;53;20989;-70
2022/02/03 23:00:02;;;;;;;5.57;2.90;;;8.70;72.60;;;;;;2339868;54;21258;-70
2022/02/03 23:02:29;;;;;;;3.72;2.03;;;8.70;72.40;;;;;;2372533;53;21015;-69
2022/02/03 23:04:58;;;;;;;4.30;1.98;;;8.60;72.20;;;;;;2339897;54;20935;-69
2022/02/03 23:07:36;;;;;;;3.72;1.67;;;8.50;72.20;;;;;;2339815;55;21498;-70
2022/02/03 23:10:24;;;;;;;3.80;1.90;;;8.40;72.10;;;;;;2340266;55;20931;-69
2022/02/03 23:19:18;;;;;;;2.47;1.23;;;8.20;72.00;;;;;;2351005;53;20982;-70
2022/02/03 23:22:10;;;;;;;2.90;1.30;;;8.20;72.10;;;;;;2340185;54;21456;-69
2022/02/03 23:24:37;;;;;;;2.90;1.30;;;8.10;72.20;;;;;;2341774;53;21525;-68
2022/02/03 23:27:42;;;;;;;3.90;1.52;;;8.10;72.50;;;;;;2349667;53;20996;-69
2022/02/03 23:30:09;;;;;;;2.95;1.33;;;8.00;72.80;;;;;;2317067;53;21013;-70
2022/02/03 23:32:35;;;;;;;3.15;1.48;;;8.00;73.10;;;;;;2328517;53;20949;-68
2022/02/03 23:35:19;;;;;;;3.78;2.05;;;7.90;73.20;;;;;;2316028;54;20976;-70
2022/02/03 23:37:50;;;;;;;4.25;2.10;;;7.90;73.10;;;;;;2339414;53;20992;-71
2022/02/03 23:40:26;;;;;;;3.80;2.17;;;7.90;73.10;;;;;;2340541;54;20966;-69
